sensor_id;sensor_type;location;lat;lon;timestamp;P1;durP1;ratioP1;P2;durP2;ratioP2
22382;SDS011;11359;45.802;13.530;2023-04-01T00:00:55;0.30;;;0.30;;
22382;SDS011;11359;45.802;13.530;2023-04-01T00:03:23;0.20;;;0.20;;
22382;SDS011;11359;45.802;13.530;2023-04-01T00:05:49;0.30;;;0.30;;
22382;SDS011;11359;45.802;13.530;2023-04-01T00:08:21;0.20;;;0.20;;
22382;SDS011;11359;45.802;13.530;2023-04-01T00:10:47;0.30;;;0.30;;
22382;SDS011;11359;45.802;13.530;2023-04-01T00:13:13;0.30;;;0.30;;
22382;SDS011;11359;45.802;13.530;2023-04-01T00:15:39;0.30;;;0.30;;
22382;SDS011;11359;45.802;13.530;2023-04-01T00:18:06;0.30;;;0.30;;
22382;SDS011;11359;45.802;13.530;2023-04-01T00:20:31;0.30;;;0.30;;
22382;SDS011;11359;45.802;13.530;2023-04-01T00:22:57;0.30;;;0.30;;
22382;SDS011;11359;45.802;13.530;2023-04-01T00:25:23;0.20;;;0.20;;
22382;SDS011;11359;45.802;13.530;2023-04-01T00:27:49;0.30;;;0.30;;
22382;SDS011;11359;45.802;13.530;2023-04-01T00:30:17;0.30;;;0.30;;
22382;SDS011;11359;45.802;13.530;2023-04-01T00:32:43;0.22;;;0.22;;
22382;SDS011;11359;45.802;13.530;2023-04-01T00:35:12;0.20;;;0.20;;
22382;SDS011;11359;45.802;13.530;2023-04-01T00:37:38;0.20;;;0.20;;
22382;SDS011;11359;45.802;13.530;2023-04-01T00:40:06;0.20;;;0.20;;
22382;SDS011;11359;45.802;13.530;2023-04-01T00:42:33;0.20;;;0.20;;
22382;SDS011;11359;45.802;13.530;2023-04-01T00:44:58;0.30;;;0.30;;
22382;SDS011;11359;45.802;13.530;2023-04-01T00:47:52;0.30;;;0.30;;
22382;SDS011;11359;45.802;13.530;2023-04-01T00:50:18;0.30;;;0.30;;
22382;SDS011;11359;45.802;13.530;2023-04-01T00:52:46;0.30;;;0.30;;
22382;SDS011;11359;45.802;13.530;2023-04-01T00:55:12;0.30;;;0.30;;
22382;SDS011;11359;45.802;13.530;2023-04-01T00:57:41;0.30;;;0.30;;
22382;SDS011;11359;45.802;13.530;2023-04-01T01:00:10;0.28;;;0.28;;
22382;SDS011;11359;45.802;13.530;2023-04-01T01:02:38;0.30;;;0.30;;
22382;SDS011;11359;45.802;13.530;2023-04-01T01:05:07;0.30;;;0.30;;
22382;SDS011;11359;45.802;13.530;2023-04-01T01:07:39;0.30;;;0.30;;
22382;SDS011;11359;45.802;13.530;2023-04-01T01:10:24;0.30;;;0.30;;
22382;SDS011;11359;45.802;13.530;2023-04-01T01:24:17;0.30;;;0.30;;
22382;SDS011;11359;45.802;13.530;2023-04-01T01:34:54;0.30;;;0.30;;
22382;SDS011;11359;45.802;13.530;2023-04-01T01:37:35;0.30;;;0.30;;
22382;SDS011;11359;45.802;13.530;2023-04-01T01:40:05;0.30;;;0.30;;
22382;SDS011;11359;45.802;13.530;2023-04-01T01:42:34;0.30;;;0.30;;
22382;SDS011;11359;45.802;13.530;2023-04-01T01:45:04;0.30;;;0.30;;
22382;SDS011;11359;45.802;13.530;2023-04-01T01:47:32;0.30;;;0.30;;
22382;SDS011;11359;45.802;13.530;2023-04-01T01:50:03;0.30;;;0.30;;
22382;SDS011;11359;45.802;13.530;2023-04-01T01:52:30;0.30;;;0.30;;
22382;SDS011;11359;45.802;13.530;2023-04-01T01:54:57;0.30;;;0.30;;
22382;SDS011;11359;45.802;13.530;2023-04-01T01:57:29;0.30;;;0.30;;
22382;SDS011;11359;45.802;13.530;2023-04-01T02:00:02;0.30;;;0.30;;
22382;SDS011;11359;45.802;13.530;2023-04-01T02:02:39;0.30;;;0.30;;
22382;SDS011;11359;45.802;13.530;2023-04-01T02:05:11;0.30;;;0.30;;
22382;SDS011;11359;45.802;13.530;2023-04-01T02:07:43;0.30;;;0.30;;
22382;SDS011;11359;45.802;13.530;2023-04-01T02:10:13;0.25;;;0.25;;
22382;SDS011;11359;45.802;13.530;2023-04-01T02:12:40;0.30;;;0.30;;
22382;SDS011;11359;45.802;13.530;2023-04-01T02:15:08;0.30;;;0.30;;
22382;SDS011;11359;45.802;13.530;2023-04-01T02:17:38;0.30;;;0.30;;
22382;SDS011;11359;45.802;13.530;2023-04-01T02:22:44;0.30;;;0.30;;
22382;SDS011;11359;45.802;13.530;2023-04-01T02:27:43;0.30;;;0.30;;
22382;SDS011;11359;45.802;13.530;2023-04-01T02:30:12;0.30;;;0.30;;
22382;SDS011;11359;45.802;13.530;2023-04-01T02:32:39;0.30;;;0.30;;
22382;SDS011;11359;45.802;13.530;2023-04-01T02:35:07;0.30;;;0.30;;
22382;SDS011;11359;45.802;13.530;2023-04-01T02:37:35;0.35;;;0.35;;
22382;SDS011;11359;45.802;13.530;2023-04-01T02:40:06;0.30;;;0.30;;
22382;SDS011;11359;45.802;13.530;2023-04-01T02:42:33;0.30;;;0.30;;
22382;SDS011;11359;45.802;13.530;2023-04-01T02:45:00;0.30;;;0.30;;
22382;SDS011;11359;45.802;13.530;2023-04-01T02:47:26;0.30;;;0.30;;
22382;SDS011;11359;45.802;13.530;2023-04-01T02:49:52;0.30;;;0.30;;
22382;SDS011;11359;45.802;13.530;2023-04-01T02:52:26;0.30;;;0.30;;
22382;SDS011;11359;45.802;13.530;2023-04-01T02:54:53;0.30;;;0.30;;
22382;SDS011;11359;45.802;13.530;2023-04-01T02:57:20;0.30;;;0.30;;
22382;SDS011;11359;45.802;13.530;2023-04-01T02:59:45;0.30;;;0.30;;
22382;SDS011;11359;45.802;13.530;2023-04-01T03:02:11;0.30;;;0.30;;
22382;SDS011;11359;45.802;13.530;2023-04-01T03:04:37;0.30;;;0.30;;
22382;SDS011;11359;45.802;13.530;2023-04-01T03:07:03;0.30;;;0.30;;
22382;SDS011;11359;45.802;13.530;2023-04-01T03:09:29;0.30;;;0.30;;
22382;SDS011;11359;45.802;13.530;2023-04-01T03:11:55;0.30;;;0.30;;
22382;SDS011;11359;45.802;13.530;2023-04-01T03:14:21;0.20;;;0.20;;
22382;SDS011;11359;45.802;13.530;2023-04-01T03:16:47;0.30;;;0.30;;
22382;SDS011;11359;45.802;13.530;2023-04-01T03:19:13;0.30;;;0.30;;
22382;SDS011;11359;45.802;13.530;2023-04-01T03:21:38;0.30;;;0.30;;
22382;SDS011;11359;45.802;13.530;2023-04-01T03:24:04;0.30;;;0.30;;
22382;SDS011;11359;45.802;13.530;2023-04-01T03:26:31;0.30;;;0.30;;
22382;SDS011;11359;45.802;13.530;2023-04-01T03:28:57;0.30;;;0.30;;
22382;SDS011;11359;45.802;13.530;2023-04-01T03:31:22;0.30;;;0.30;;
22382;SDS011;11359;45.802;13.530;2023-04-01T03:33:48;0.30;;;0.30;;
22382;SDS011;11359;45.802;13.530;2023-04-01T03:36:14;0.30;;;0.30;;
22382;SDS011;11359;45.802;13.530;2023-04-01T03:38:40;0.30;;;0.30;;
22382;SDS011;11359;45.802;13.530;2023-04-01T03:41:11;0.30;;;0.30;;
22382;SDS011;11359;45.802;13.530;2023-04-01T03:43:38;0.30;;;0.30;;
22382;SDS011;11359;45.802;13.530;2023-04-01T03:46:04;0.30;;;0.30;;
22382;SDS011;11359;45.802;13.530;2023-04-01T03:48:29;0.30;;;0.30;;
22382;SDS011;11359;45.802;13.530;2023-04-01T03:50:55;0.30;;;0.30;;
22382;SDS011;11359;45.802;13.530;2023-04-01T03:53:21;0.30;;;0.30;;
22382;SDS011;11359;45.802;13.530;2023-04-01T03:55:47;0.30;;;0.30;;
22382;SDS011;11359;45.802;13.530;2023-04-01T03:58:13;0.30;;;0.30;;
22382;SDS011;11359;45.802;13.530;2023-04-01T04:00:39;0.30;;;0.30;;
22382;SDS011;11359;45.802;13.530;2023-04-01T04:03:06;0.20;;;0.20;;
22382;SDS011;11359;45.802;13.530;2023-04-01T04:05:32;0.30;;;0.30;;
22382;SDS011;11359;45.802;13.530;2023-04-01T04:07:57;0.30;;;0.30;;
22382;SDS011;11359;45.802;13.530;2023-04-01T04:10:26;0.30;;;0.30;;
22382;SDS011;11359;45.802;13.530;2023-04-01T04:12:54;0.30;;;0.30;;
22382;SDS011;11359;45.802;13.530;2023-04-01T04:15:20;0.30;;;0.30;;
22382;SDS011;11359;45.802;13.530;2023-04-01T04:17:46;0.30;;;0.30;;
22382;SDS011;11359;45.802;13.530;2023-04-01T04:20:12;0.30;;;0.30;;
22382;SDS011;11359;45.802;13.530;2023-04-01T04:22:38;0.30;;;0.30;;
22382;SDS011;11359;45.802;13.530;2023-04-01T04:25:04;0.30;;;0.30;;
22382;SDS011;11359;45.802;13.530;2023-04-01T04:27:30;0.30;;;0.30;;
22382;SDS011;11359;45.802;13.530;2023-04-01T04:29:56;0.30;;;0.30;;
22382;SDS011;11359;45.802;13.530;2023-04-01T04:32:21;0.30;;;0.30;;
22382;SDS011;11359;45.802;13.530;2023-04-01T04:34:47;0.30;;;0.30;;
22382;SDS011;11359;45.802;13.530;2023-04-01T04:37:13;0.30;;;0.30;;
22382;SDS011;11359;45.802;13.530;2023-04-01T04:39:38;0.30;;;0.30;;
22382;SDS011;11359;45.802;13.530;2023-04-01T04:42:05;0.30;;;0.30;;
22382;SDS011;11359;45.802;13.530;2023-04-01T04:44:30;0.30;;;0.30;;
22382;SDS011;11359;45.802;13.530;2023-04-01T04:46:56;0.30;;;0.30;;
22382;SDS011;11359;45.802;13.530;2023-04-01T04:49:22;0.30;;;0.30;;
22382;SDS011;11359;45.802;13.530;2023-04-01T04:51:48;0.30;;;0.30;;
22382;SDS011;11359;45.802;13.530;2023-04-01T04:54:13;0.30;;;0.30;;
22382;SDS011;11359;45.802;13.530;2023-04-01T04:56:39;0.30;;;0.30;;
22382;SDS011;11359;45.802;13.530;2023-04-01T04:59:05;0.30;;;0.30;;
22382;SDS011;11359;45.802;13.530;2023-04-01T05:01:31;0.30;;;0.30;;
22382;SDS011;11359;45.802;13.530;2023-04-01T05:03:58;0.30;;;0.30;;
22382;SDS011;11359;45.802;13.530;2023-04-01T05:06:24;0.30;;;0.30;;
22382;SDS011;11359;45.802;13.530;2023-04-01T05:08:50;0.30;;;0.30;;
22382;SDS011;11359;45.802;13.530;2023-04-01T05:11:19;0.30;;;0.30;;
22382;SDS011;11359;45.802;13.530;2023-04-01T05:13:45;0.30;;;0.30;;
22382;SDS011;11359;45.802;13.530;2023-04-01T05:16:12;0.30;;;0.30;;
22382;SDS011;11359;45.802;13.530;2023-04-01T05:18:39;0.30;;;0.30;;
22382;SDS011;11359;45.802;13.530;2023-04-01T05:21:06;0.30;;;0.30;;
22382;SDS011;11359;45.802;13.530;2023-04-01T05:23:34;0.30;;;0.30;;
22382;SDS011;11359;45.802;13.530;2023-04-01T05:26:08;0.30;;;0.30;;
22382;SDS011;11359;45.802;13.530;2023-04-01T05:28:36;0.30;;;0.30;;
22382;SDS011;11359;45.802;13.530;2023-04-01T05:31:02;0.30;;;0.30;;
22382;SDS011;11359;45.802;13.530;2023-04-01T05:33:29;0.30;;;0.30;;
22382;SDS011;11359;45.802;13.530;2023-04-01T05:35:56;0.30;;;0.30;;
22382;SDS011;11359;45.802;13.530;2023-04-01T05:38:30;0.30;;;0.30;;
22382;SDS011;11359;45.802;13.530;2023-04-01T05:40:58;0.30;;;0.30;;
22382;SDS011;11359;45.802;13.530;2023-04-01T05:43:26;0.30;;;0.30;;
22382;SDS011;11359;45.802;13.530;2023-04-01T05:45:51;0.30;;;0.30;;
22382;SDS011;11359;45.802;13.530;2023-04-01T05:48:17;0.30;;;0.30;;
22382;SDS011;11359;45.802;13.530;2023-04-01T05:50:43;0.30;;;0.30;;
22382;SDS011;11359;45.802;13.530;2023-04-01T05:53:08;0.30;;;0.30;;
22382;SDS011;11359;45.802;13.530;2023-04-01T05:55:34;0.38;;;0.30;;
22382;SDS011;11359;45.802;13.530;2023-04-01T05:58:01;0.30;;;0.30;;
22382;SDS011;11359;45.802;13.530;2023-04-01T06:00:26;0.30;;;0.30;;
22382;SDS011;11359;45.802;13.530;2023-04-01T06:02:52;0.30;;;0.30;;
22382;SDS011;11359;45.802;13.530;2023-04-01T06:05:22;0.30;;;0.30;;
22382;SDS011;11359;45.802;13.530;2023-04-01T06:07:51;0.30;;;0.30;;
22382;SDS011;11359;45.802;13.530;2023-04-01T06:10:22;0.30;;;0.30;;
22382;SDS011;11359;45.802;13.530;2023-04-01T06:24:46;0.30;;;0.30;;
22382;SDS011;11359;45.802;13.530;2023-04-01T06:41:21;0.30;;;0.30;;
22382;SDS011;11359;45.802;13.530;2023-04-01T06:46:45;0.30;;;0.30;;
22382;SDS011;11359;45.802;13.530;2023-04-01T06:49:29;0.30;;;0.30;;
22382;SDS011;11359;45.802;13.530;2023-04-01T06:52:06;0.30;;;0.30;;
22382;SDS011;11359;45.802;13.530;2023-04-01T06:55:01;0.30;;;0.30;;
22382;SDS011;11359;45.802;13.530;2023-04-01T06:57:48;0.30;;;0.30;;
22382;SDS011;11359;45.802;13.530;2023-04-01T07:02:45;0.50;;;0.40;;
22382;SDS011;11359;45.802;13.530;2023-04-01T07:05:20;0.30;;;0.30;;
22382;SDS011;11359;45.802;13.530;2023-04-01T07:07:48;0.40;;;0.40;;
22382;SDS011;11359;45.802;13.530;2023-04-01T07:13:22;0.40;;;0.40;;
22382;SDS011;11359;45.802;13.530;2023-04-01T07:15:57;0.50;;;0.50;;
22382;SDS011;11359;45.802;13.530;2023-04-01T07:18:53;0.63;;;0.47;;
22382;SDS011;11359;45.802;13.530;2023-04-01T07:21:26;0.40;;;0.40;;
22382;SDS011;11359;45.802;13.530;2023-04-01T07:23:56;0.40;;;0.40;;
22382;SDS011;11359;45.802;13.530;2023-04-01T07:26:28;0.40;;;0.40;;
22382;SDS011;11359;45.802;13.530;2023-04-01T07:28:53;0.45;;;0.45;;
22382;SDS011;11359;45.802;13.530;2023-04-01T07:31:22;0.32;;;0.32;;
22382;SDS011;11359;45.802;13.530;2023-04-01T07:34:01;0.30;;;0.30;;
22382;SDS011;11359;45.802;13.530;2023-04-01T07:41:54;0.30;;;0.30;;
22382;SDS011;11359;45.802;13.530;2023-04-01T07:45:01;0.30;;;0.30;;
22382;SDS011;11359;45.802;13.530;2023-04-01T07:50:10;0.30;;;0.30;;
22382;SDS011;11359;45.802;13.530;2023-04-01T07:53:03;0.30;;;0.30;;
22382;SDS011;11359;45.802;13.530;2023-04-01T07:55:44;0.38;;;0.30;;
22382;SDS011;11359;45.802;13.530;2023-04-01T07:58:39;0.30;;;0.30;;
22382;SDS011;11359;45.802;13.530;2023-04-01T08:01:23;0.30;;;0.30;;
22382;SDS011;11359;45.802;13.530;2023-04-01T08:06:53;0.30;;;0.30;;
22382;SDS011;11359;45.802;13.530;2023-04-01T08:12:57;0.30;;;0.30;;
22382;SDS011;11359;45.802;13.530;2023-04-01T08:21:03;0.30;;;0.30;;
22382;SDS011;11359;45.802;13.530;2023-04-01T08:23:42;0.77;;;0.40;;
22382;SDS011;11359;45.802;13.530;2023-04-01T08:34:26;0.30;;;0.30;;
22382;SDS011;11359;45.802;13.530;2023-04-01T08:37:04;0.30;;;0.30;;
22382;SDS011;11359;45.802;13.530;2023-04-01T08:56:17;0.30;;;0.30;;
22382;SDS011;11359;45.802;13.530;2023-04-01T09:01:54;0.30;;;0.30;;
22382;SDS011;11359;45.802;13.530;2023-04-01T09:07:43;0.32;;;0.32;;
22382;SDS011;11359;45.802;13.530;2023-04-01T09:16:06;0.30;;;0.30;;
22382;SDS011;11359;45.802;13.530;2023-04-01T09:21:18;0.30;;;0.30;;
22382;SDS011;11359;45.802;13.530;2023-04-01T09:23:48;0.30;;;0.30;;
22382;SDS011;11359;45.802;13.530;2023-04-01T09:26:34;0.20;;;0.20;;
22382;SDS011;11359;45.802;13.530;2023-04-01T09:29:48;0.30;;;0.30;;
22382;SDS011;11359;45.802;13.530;2023-04-01T09:35:06;0.30;;;0.30;;
22382;SDS011;11359;45.802;13.530;2023-04-01T09:40:15;0.30;;;0.30;;
22382;SDS011;11359;45.802;13.530;2023-04-01T09:51:51;0.30;;;0.30;;
22382;SDS011;11359;45.802;13.530;2023-04-01T10:11:09;0.22;;;0.22;;
22382;SDS011;11359;45.802;13.530;2023-04-01T10:36:10;0.30;;;0.30;;
22382;SDS011;11359;45.802;13.530;2023-04-01T10:38:48;0.30;;;0.30;;
22382;SDS011;11359;45.802;13.530;2023-04-01T10:41:43;0.30;;;0.30;;
22382;SDS011;11359;45.802;13.530;2023-04-01T10:47:15;0.30;;;0.30;;
22382;SDS011;11359;45.802;13.530;2023-04-01T10:56:51;0.30;;;0.30;;
22382;SDS011;11359;45.802;13.530;2023-04-01T11:12:33;0.30;;;0.30;;
22382;SDS011;11359;45.802;13.530;2023-04-01T11:23:54;0.30;;;0.30;;
22382;SDS011;11359;45.802;13.530;2023-04-01T11:29:32;0.30;;;0.30;;
22382;SDS011;11359;45.802;13.530;2023-04-01T12:07:11;0.30;;;0.30;;
22382;SDS011;11359;45.802;13.530;2023-04-01T12:15:15;0.30;;;0.30;;
22382;SDS011;11359;45.802;13.530;2023-04-01T12:37:21;0.30;;;0.30;;
22382;SDS011;11359;45.802;13.530;2023-04-01T12:39:57;0.20;;;0.20;;
22382;SDS011;11359;45.802;13.530;2023-04-01T12:45:26;0.30;;;0.30;;
22382;SDS011;11359;45.802;13.530;2023-04-01T12:48:10;0.40;;;0.30;;
22382;SDS011;11359;45.802;13.530;2023-04-01T12:51:07;0.30;;;0.30;;
22382;SDS011;11359;45.802;13.530;2023-04-01T12:59:43;0.30;;;0.30;;
22382;SDS011;11359;45.802;13.530;2023-04-01T13:12:59;0.30;;;0.30;;
22382;SDS011;11359;45.802;13.530;2023-04-01T13:29:59;0.30;;;0.30;;
22382;SDS011;11359;45.802;13.530;2023-04-01T13:32:34;0.30;;;0.30;;
22382;SDS011;11359;45.802;13.530;2023-04-01T13:38:03;0.40;;;0.30;;
22382;SDS011;11359;45.802;13.530;2023-04-01T13:46:33;0.30;;;0.30;;
22382;SDS011;11359;45.802;13.530;2023-04-01T13:59:30;0.65;;;0.32;;
22382;SDS011;11359;45.802;13.530;2023-04-01T14:04:57;0.38;;;0.32;;
22382;SDS011;11359;45.802;13.530;2023-04-01T14:48:32;0.88;;;0.60;;
22382;SDS011;11359;45.802;13.530;2023-04-01T14:56:34;0.30;;;0.30;;
22382;SDS011;11359;45.802;13.530;2023-04-01T14:59:08;0.40;;;0.40;;
22382;SDS011;11359;45.802;13.530;2023-04-01T15:01:46;0.37;;;0.30;;
22382;SDS011;11359;45.802;13.530;2023-04-01T15:24:34;0.57;;;0.38;;
22382;SDS011;11359;45.802;13.530;2023-04-01T15:37:53;0.30;;;0.30;;
22382;SDS011;11359;45.802;13.530;2023-04-01T15:40:26;0.32;;;0.30;;
22382;SDS011;11359;45.802;13.530;2023-04-01T15:46:09;0.20;;;0.20;;
22382;SDS011;11359;45.802;13.530;2023-04-01T15:54:52;0.22;;;0.22;;
22382;SDS011;11359;45.802;13.530;2023-04-01T16:05:53;0.20;;;0.20;;
22382;SDS011;11359;45.802;13.530;2023-04-01T16:19:59;0.20;;;0.20;;
22382;SDS011;11359;45.802;13.530;2023-04-01T16:22:49;0.10;;;0.10;;
22382;SDS011;11359;45.802;13.530;2023-04-01T16:36:37;0.20;;;0.20;;
22382;SDS011;11359;45.802;13.530;2023-04-01T16:44:28;0.20;;;0.20;;
22382;SDS011;11359;45.802;13.530;2023-04-01T16:46:58;0.20;;;0.20;;
22382;SDS011;11359;45.802;13.530;2023-04-01T16:49:37;0.20;;;0.20;;
22382;SDS011;11359;45.802;13.530;2023-04-01T16:52:36;0.30;;;0.20;;
22382;SDS011;11359;45.802;13.530;2023-04-01T16:55:41;0.20;;;0.20;;
22382;SDS011;11359;45.802;13.530;2023-04-01T17:04:10;0.20;;;0.20;;
22382;SDS011;11359;45.802;13.530;2023-04-01T17:06:51;0.20;;;0.20;;
22382;SDS011;11359;45.802;13.530;2023-04-01T17:09:56;0.20;;;0.20;;
22382;SDS011;11359;45.802;13.530;2023-04-01T17:12:38;0.20;;;0.20;;
22382;SDS011;11359;45.802;13.530;2023-04-01T17:21:06;0.65;;;0.40;;
22382;SDS011;11359;45.802;13.530;2023-04-01T17:23:45;0.30;;;0.30;;
22382;SDS011;11359;45.802;13.530;2023-04-01T17:26:33;0.30;;;0.30;;
22382;SDS011;11359;45.802;13.530;2023-04-01T17:34:46;0.30;;;0.30;;
22382;SDS011;11359;45.802;13.530;2023-04-01T17:42:53;0.30;;;0.30;;
22382;SDS011;11359;45.802;13.530;2023-04-01T17:45:51;0.30;;;0.30;;
22382;SDS011;11359;45.802;13.530;2023-04-01T18:00:03;0.30;;;0.30;;
22382;SDS011;11359;45.802;13.530;2023-04-01T18:11:08;0.30;;;0.30;;
22382;SDS011;11359;45.802;13.530;2023-04-01T18:14:16;0.30;;;0.30;;
22382;SDS011;11359;45.802;13.530;2023-04-01T18:16:43;0.30;;;0.30;;
22382;SDS011;11359;45.802;13.530;2023-04-01T18:22:21;0.38;;;0.38;;
22382;SDS011;11359;45.802;13.530;2023-04-01T18:27:39;0.30;;;0.30;;
22382;SDS011;11359;45.802;13.530;2023-04-01T18:30:12;0.20;;;0.20;;
22382;SDS011;11359;45.802;13.530;2023-04-01T18:33:02;0.30;;;0.30;;
22382;SDS011;11359;45.802;13.530;2023-04-01T18:41:00;0.30;;;0.30;;
22382;SDS011;11359;45.802;13.530;2023-04-01T18:43:30;0.40;;;0.40;;
22382;SDS011;11359;45.802;13.530;2023-04-01T18:46:06;0.30;;;0.30;;
22382;SDS011;11359;45.802;13.530;2023-04-01T18:51:41;0.30;;;0.30;;
22382;SDS011;11359;45.802;13.530;2023-04-01T18:57:27;1.25;;;0.77;;
22382;SDS011;11359;45.802;13.530;2023-04-01T19:00:05;0.60;;;0.52;;
22382;SDS011;11359;45.802;13.530;2023-04-01T19:03:02;0.63;;;0.60;;
22382;SDS011;11359;45.802;13.530;2023-04-01T19:05:44;0.75;;;0.65;;
22382;SDS011;11359;45.802;13.530;2023-04-01T19:21:40;0.80;;;0.60;;
22382;SDS011;11359;45.802;13.530;2023-04-01T19:32:49;0.82;;;0.80;;
22382;SDS011;11359;45.802;13.530;2023-04-01T19:35:38;1.08;;;0.98;;
22382;SDS011;11359;45.802;13.530;2023-04-01T19:46:45;0.80;;;0.80;;
22382;SDS011;11359;45.802;13.530;2023-04-01T19:51:50;1.08;;;0.88;;
22382;SDS011;11359;45.802;13.530;2023-04-01T20:03:03;0.63;;;0.60;;
22382;SDS011;11359;45.802;13.530;2023-04-01T20:05:47;0.50;;;0.50;;
22382;SDS011;11359;45.802;13.530;2023-04-01T20:08:37;0.80;;;0.70;;
22382;SDS011;11359;45.802;13.530;2023-04-01T20:12:04;1.40;;;1.00;;
22382;SDS011;11359;45.802;13.530;2023-04-01T20:25:57;1.17;;;1.00;;
22382;SDS011;11359;45.802;13.530;2023-04-01T20:28:00;1.00;;;0.90;;
22382;SDS011;11359;45.802;13.530;2023-04-01T20:41:23;1.83;;;1.50;;
22382;SDS011;11359;45.802;13.530;2023-04-01T20:49:25;1.50;;;1.20;;
22382;SDS011;11359;45.802;13.530;2023-04-01T20:54:59;2.10;;;1.40;;
22382;SDS011;11359;45.802;13.530;2023-04-01T21:02:42;1.48;;;1.30;;
22382;SDS011;11359;45.802;13.530;2023-04-01T21:10:55;0.88;;;0.88;;
22382;SDS011;11359;45.802;13.530;2023-04-01T21:27:39;1.55;;;1.00;;
22382;SDS011;11359;45.802;13.530;2023-04-01T21:33:15;1.17;;;0.90;;
22382;SDS011;11359;45.802;13.530;2023-04-01T21:47:02;0.93;;;0.90;;
22382;SDS011;11359;45.802;13.530;2023-04-01T21:57:47;0.70;;;0.70;;
22382;SDS011;11359;45.802;13.530;2023-04-01T22:29:59;1.30;;;0.90;;
22382;SDS011;11359;45.802;13.530;2023-04-01T22:43:40;1.10;;;0.90;;
22382;SDS011;11359;45.802;13.530;2023-04-01T22:49:36;1.13;;;1.00;;
22382;SDS011;11359;45.802;13.530;2023-04-01T22:52:22;0.98;;;0.80;;
22382;SDS011;11359;45.802;13.530;2023-04-01T22:55:22;1.40;;;0.80;;
22382;SDS011;11359;45.802;13.530;2023-04-01T22:58:00;0.75;;;0.70;;
22382;SDS011;11359;45.802;13.530;2023-04-01T23:00:36;0.90;;;0.80;;
22382;SDS011;11359;45.802;13.530;2023-04-01T23:05:54;1.13;;;1.00;;
22382;SDS011;11359;45.802;13.530;2023-04-01T23:11:10;0.93;;;0.82;;
22382;SDS011;11359;45.802;13.530;2023-04-01T23:16:17;1.00;;;0.80;;
22382;SDS011;11359;45.802;13.530;2023-04-01T23:18:55;1.02;;;0.82;;
22382;SDS011;11359;45.802;13.530;2023-04-01T23:21:32;1.10;;;1.00;;
22382;SDS011;11359;45.802;13.530;2023-04-01T23:27:23;1.30;;;1.20;;
22382;SDS011;11359;45.802;13.530;2023-04-01T23:29:50;1.13;;;1.02;;
22382;SDS011;11359;45.802;13.530;2023-04-01T23:32:22;1.00;;;0.90;;
22382;SDS011;11359;45.802;13.530;2023-04-01T23:34:52;0.95;;;0.80;;
22382;SDS011;11359;45.802;13.530;2023-04-01T23:37:20;0.70;;;0.70;;
22382;SDS011;11359;45.802;13.530;2023-04-01T23:39:53;0.70;;;0.70;;
22382;SDS011;11359;45.802;13.530;2023-04-01T23:44:50;1.08;;;0.90;;
22382;SDS011;11359;45.802;13.530;2023-04-01T23:47:22;0.73;;;0.60;;
22382;SDS011;11359;45.802;13.530;2023-04-01T23:49:52;1.23;;;0.70;;
22382;SDS011;11359;45.802;13.530;2023-04-01T23:52:27;0.90;;;0.60;;
22382;SDS011;11359;45.802;13.530;2023-04-01T23:55:12;0.80;;;0.57;;
22382;SDS011;11359;45.802;13.530;2023-04-01T23:57:42;0.60;;;0.60;;
